createdAt,value
2023-01-10T00:00:27.010Z,100780.41
2023-01-10T00:01:28.585Z,100783.88
2023-01-10T00:02:31.096Z,100789.16
2023-01-10T00:03:32.666Z,100790.75
2023-01-10T00:04:35.229Z,100791.47
2023-01-10T00:05:38.533Z,100793.91
2023-01-10T00:06:47.414Z,100789.28
2023-01-10T00:07:49.532Z,100792.69
2023-01-10T00:08:52.972Z,100803.03
2023-01-10T00:09:54.619Z,100801.13
2023-01-10T00:10:57.105Z,100810.75
2023-01-10T00:12:17.504Z,100815.91
2023-01-10T00:13:25.099Z,100810.34
2023-01-10T00:14:28.994Z,100823.53
2023-01-10T00:15:33.323Z,100824.28
2023-01-10T00:16:36.974Z,100827.75
2023-01-10T00:17:39.444Z,100823.31
2023-01-10T00:18:40.965Z,100825.03
2023-01-10T00:19:43.485Z,100827.56
2023-01-10T00:20:45.756Z,100824.81
2023-01-10T00:21:48.244Z,100831.81
2023-01-10T00:22:50.514Z,100840.56
2023-01-10T00:23:53.634Z,100826.53
2023-01-10T00:24:55.158Z,100842.38
2023-01-10T00:25:57.706Z,100840.50
2023-01-10T00:26:59.420Z,100837.00
2023-01-10T00:28:10.753Z,100838.69
2023-01-10T00:29:12.353Z,100838.56
2023-01-10T00:30:16.400Z,100843.78
2023-01-10T00:31:17.964Z,100850.72
2023-01-10T00:32:20.932Z,100845.44
2023-01-10T00:33:22.827Z,100843.66
2023-01-10T00:34:25.984Z,100850.63
2023-01-10T00:35:28.030Z,100848.94
2023-01-10T00:36:41.914Z,100863.84
2023-01-10T00:37:43.441Z,100861.19
2023-01-10T00:38:45.955Z,100862.06
2023-01-10T00:39:47.542Z,100868.19
2023-01-10T00:40:50.070Z,100867.22
2023-01-10T00:42:10.331Z,100868.91
2023-01-10T00:43:31.249Z,100875.91
2023-01-10T00:44:32.792Z,100877.56
2023-01-10T00:45:36.645Z,100882.84
2023-01-10T00:46:38.167Z,100887.19
2023-01-10T00:47:40.761Z,100893.31
2023-01-10T00:48:43.362Z,100885.31
2023-01-10T00:49:46.718Z,100893.25
2023-01-10T00:50:50.746Z,100893.13
2023-01-10T00:51:57.918Z,100895.69
2023-01-10T00:53:00.407Z,100896.50
2023-01-10T00:54:01.962Z,100891.22
2023-01-10T00:55:04.985Z,100892.91
2023-01-10T00:56:06.976Z,100899.03
2023-01-10T00:57:09.814Z,100903.47
2023-01-10T00:58:12.769Z,100904.31
2023-01-10T00:59:15.663Z,100905.19
2023-01-10T01:00:17.489Z,100909.59
2023-01-10T01:01:21.469Z,100912.16
2023-01-10T01:02:24.249Z,100913.94
2023-01-10T01:03:26.913Z,100925.25
2023-01-10T01:04:28.445Z,100919.13
2023-01-10T01:05:30.948Z,100925.38
2023-01-10T01:06:32.569Z,100924.31
2023-01-10T01:07:35.107Z,100926.94
2023-01-10T01:08:36.813Z,100932.22
2023-01-10T01:10:00.086Z,100924.19
2023-01-10T01:11:01.690Z,100932.03
2023-01-10T01:12:04.262Z,100932.13
2023-01-10T01:13:09.078Z,100946.19
2023-01-10T01:14:11.629Z,100939.19
2023-01-10T01:15:13.163Z,100942.59
2023-01-10T01:16:15.759Z,100945.25
2023-01-10T01:17:18.872Z,100937.31
2023-01-10T01:18:22.353Z,100939.97
2023-01-10T01:19:24.928Z,100949.59
2023-01-10T01:20:26.911Z,100955.81
2023-01-10T01:21:29.438Z,100960.97
2023-01-10T01:22:31.105Z,100959.19
2023-01-10T01:23:34.761Z,100962.66
2023-01-10T01:24:36.423Z,100958.25
2023-01-10T01:25:40.386Z,100962.66
2023-01-10T01:26:43.328Z,100963.53
2023-01-10T01:27:46.475Z,100963.53
2023-01-10T01:28:47.985Z,100965.22
2023-01-10T01:29:50.455Z,100959.19
2023-01-10T01:30:52.179Z,100967.09
2023-01-10T01:31:54.758Z,100968.81
2023-01-10T01:32:57.853Z,100967.09
2023-01-10T01:34:00.450Z,100976.72
2023-01-10T01:35:01.999Z,100984.66
2023-01-10T01:36:09.598Z,100990.88
2023-01-10T01:37:11.096Z,100993.53
2023-01-10T01:38:14.127Z,100986.56
2023-01-10T01:39:15.645Z,100992.66
2023-01-10T01:40:20.330Z,100992.78
2023-01-10T01:41:41.198Z,100993.63
2023-01-10T01:42:44.264Z,100993.63
2023-01-10T01:44:00.549Z,100992.78
2023-01-10T01:45:42.964Z,100999.00
2023-01-10T01:46:48.557Z,101004.28
2023-01-10T01:47:56.716Z,101004.28
2023-01-10T01:48:59.638Z,101006.94
2023-01-10T01:50:02.440Z,101007.88
2023-01-10T01:51:09.386Z,101008.72
2023-01-10T01:52:18.977Z,101006.19
2023-01-10T01:53:27.205Z,101014.13
2023-01-10T01:54:32.119Z,101015.06
2023-01-10T01:55:36.028Z,101009.97
2023-01-10T01:56:47.669Z,101009.97
2023-01-10T01:57:51.906Z,101017.03
2023-01-10T01:58:59.706Z,101022.44
2023-01-10T02:00:04.882Z,101021.59
2023-01-10T02:01:08.481Z,101015.44
2023-01-10T02:02:15.921Z,101023.38
2023-01-10T02:03:17.920Z,101020.72
2023-01-10T02:05:07.624Z,101023.47
2023-01-10T02:06:10.772Z,101026.22
2023-01-10T02:07:14.222Z,101028.09
2023-01-10T02:08:16.523Z,101022.06
2023-01-10T02:09:25.727Z,101023.00
2023-01-10T02:10:33.628Z,101022.34
2023-01-10T02:11:36.264Z,101025.09
2023-01-10T02:12:38.514Z,101027.00
2023-01-10T02:13:43.240Z,101026.16
2023-01-10T02:14:47.944Z,101021.03
2023-01-10T02:15:51.005Z,101034.31
2023-01-10T02:16:53.463Z,101035.38
2023-01-10T02:17:57.261Z,101037.16
2023-01-10T02:18:59.208Z,101034.72
2023-01-10T02:20:03.584Z,101022.66
2023-01-10T02:21:31.362Z,101039.44
2023-01-10T02:22:56.287Z,101038.81
2023-01-10T02:24:29.532Z,101039.81
2023-01-10T02:26:06.055Z,101037.38
2023-01-10T02:27:20.266Z,101043.69
2023-01-10T02:28:51.818Z,101042.09
2023-01-10T02:30:38.264Z,101042.28
2023-01-10T02:32:09.837Z,101044.28
2023-01-10T02:33:22.649Z,101040.03
2023-01-10T02:34:33.009Z,101047.19
2023-01-10T02:35:51.693Z,101045.66
2023-01-10T02:37:05.764Z,101045.84
2023-01-10T02:38:18.027Z,101046.81
2023-01-10T02:39:29.704Z,101049.66
2023-01-10T02:40:42.772Z,101051.50
2023-01-10T02:41:52.912Z,101054.25
2023-01-10T02:43:00.850Z,101056.13
2023-01-10T02:44:08.308Z,101049.06
2023-01-10T02:45:14.918Z,101056.78
2023-01-10T02:46:24.484Z,101053.97
2023-01-10T02:47:35.139Z,101049.47
2023-01-10T02:48:37.643Z,101049.28
2023-01-10T02:49:43.647Z,101042.94
2023-01-10T02:50:53.575Z,101041.91
2023-01-10T02:51:55.687Z,101042.69
2023-01-10T02:53:01.371Z,101046.06
2023-01-10T02:54:08.933Z,101051.34
2023-01-10T02:55:10.461Z,101045.22
2023-01-10T02:56:49.605Z,101055.88
2023-01-10T02:58:02.567Z,101053.38
2023-01-10T02:59:23.093Z,101056.22
2023-01-10T03:00:36.272Z,101050.19
2023-01-10T03:01:48.297Z,101049.47
2023-01-10T03:03:21.750Z,101044.38
2023-01-10T03:04:32.309Z,101047.94
2023-01-10T03:05:49.105Z,101055.19
2023-01-10T03:06:59.137Z,101059.72
2023-01-10T03:08:07.989Z,101058.09
2023-01-10T03:09:17.354Z,101055.66
2023-01-10T03:10:26.397Z,101069.81
2023-01-10T03:11:44.416Z,101075.25
2023-01-10T03:12:51.336Z,101071.00
2023-01-10T03:13:58.736Z,101069.41
2023-01-10T03:15:05.029Z,101079.22
2023-01-10T03:16:11.940Z,101074.13
2023-01-10T03:17:16.830Z,101082.03
2023-01-10T03:18:24.877Z,101080.41
2023-01-10T03:19:31.157Z,101085.78
2023-01-10T03:20:38.375Z,101085.00
2023-01-10T03:21:43.272Z,101085.97
2023-01-10T03:22:46.870Z,101093.88
2023-01-10T03:23:53.909Z,101089.63
2023-01-10T03:24:59.394Z,101087.94
2023-01-10T03:26:03.608Z,101090.66
2023-01-10T03:27:10.639Z,101088.00
2023-01-10T03:28:18.765Z,101088.84
2023-01-10T03:29:29.270Z,101088.97
2023-01-10T03:30:37.836Z,101091.69
2023-01-10T03:31:46.682Z,101090.81
2023-01-10T03:32:48.420Z,101085.56
2023-01-10T03:33:53.061Z,101083.03
2023-01-10T03:34:55.207Z,101083.09
2023-01-10T03:36:14.983Z,101087.63
2023-01-10T03:37:25.058Z,101085.91
2023-01-10T03:38:33.435Z,101092.03
2023-01-10T03:39:43.784Z,101089.47
2023-01-10T03:40:55.419Z,101100.03
2023-01-10T03:42:06.712Z,101097.50
2023-01-10T03:43:33.373Z,101096.66
2023-01-10T03:44:44.464Z,101109.81
2023-01-10T03:45:56.371Z,101102.09
2023-01-10T03:47:04.136Z,101104.72
2023-01-10T03:48:09.553Z,101107.38
2023-01-10T03:49:15.097Z,101110.94
2023-01-10T03:50:21.863Z,101111.78
2023-01-10T03:51:24.141Z,101115.16
2023-01-10T03:52:27.401Z,101119.63
2023-01-10T03:53:28.952Z,101123.94
2023-01-10T03:54:31.690Z,101122.16
2023-01-10T03:55:35.030Z,101131.66
2023-01-10T03:56:45.887Z,101128.94
2023-01-10T03:57:48.794Z,101128.78
2023-01-10T03:58:51.328Z,101128.59
2023-01-10T03:59:56.626Z,101130.19
2023-01-10T04:00:59.253Z,101145.81
2023-01-10T04:02:01.006Z,101149.13
2023-01-10T04:03:03.684Z,101144.66
2023-01-10T04:04:05.410Z,101144.53
2023-01-10T04:05:10.021Z,101147.00
2023-01-10T04:06:12.013Z,101144.16
2023-01-10T04:07:14.513Z,101156.44
2023-01-10T04:08:16.092Z,101153.72
2023-01-10T04:09:18.610Z,101151.81
2023-01-10T04:10:21.036Z,101150.78
2023-01-10T04:11:23.505Z,101155.13
2023-01-10T04:12:25.087Z,101161.16
2023-01-10T04:13:27.559Z,101150.59
2023-01-10T04:14:29.165Z,101155.69
2023-01-10T04:15:31.897Z,101157.41
2023-01-10T04:16:33.516Z,101160.97
2023-01-10T04:17:36.097Z,101164.38
2023-01-10T04:18:37.661Z,101161.81
2023-01-10T04:19:40.177Z,101158.34
2023-01-10T04:20:43.998Z,101157.59
2023-01-10T04:21:46.567Z,101158.63
2023-01-10T04:22:51.371Z,101166.63
2023-01-10T04:23:53.284Z,101158.88
2023-01-10T04:24:56.141Z,101166.06
2023-01-10T04:25:58.447Z,101167.91
2023-01-10T04:27:01.528Z,101173.28
2023-01-10T04:28:03.763Z,101166.41
2023-01-10T04:29:06.888Z,101178.81
2023-01-10T04:30:09.682Z,101183.25
2023-01-10T04:31:12.180Z,101181.44
2023-01-10T04:32:13.819Z,101182.31
2023-01-10T04:33:16.305Z,101176.97
2023-01-10T04:34:20.098Z,101176.00
2023-01-10T04:35:22.678Z,101178.56
2023-01-10T04:36:26.545Z,101174.03
2023-01-10T04:37:28.063Z,101173.00
2023-01-10T04:38:30.524Z,101166.78
2023-01-10T04:39:32.207Z,101161.34
2023-01-10T04:40:34.692Z,101167.41
2023-01-10T04:41:36.227Z,101170.78
2023-01-10T04:42:38.757Z,101163.72
2023-01-10T04:43:40.293Z,101174.16
2023-01-10T04:44:42.787Z,101168.81
2023-01-10T04:45:44.335Z,101167.78
2023-01-10T04:46:46.832Z,101169.47
2023-01-10T04:47:55.891Z,101171.19
2023-01-10T04:48:59.144Z,101167.59
2023-01-10T04:50:00.633Z,101168.44
2023-01-10T04:51:03.113Z,101167.50
2023-01-10T04:52:05.990Z,101172.69
2023-01-10T04:53:08.489Z,101174.38
2023-01-10T04:54:10.506Z,101169.97
2023-01-10T04:55:13.042Z,101170.81
2023-01-10T04:56:17.596Z,101173.47
2023-01-10T04:57:20.089Z,101174.22
2023-01-10T04:58:22.572Z,101186.47
2023-01-10T04:59:24.226Z,101186.47
2023-01-10T05:00:27.665Z,101182.88
2023-01-10T05:01:30.530Z,101190.78
2023-01-10T05:02:33.202Z,101188.16
2023-01-10T05:03:35.827Z,101183.72
2023-01-10T05:04:37.319Z,101191.63
2023-01-10T05:05:40.134Z,101193.41
2023-01-10T05:06:41.710Z,101197.03
2023-01-10T05:07:48.153Z,101193.59
2023-01-10T05:08:49.685Z,101194.56
2023-01-10T05:09:52.263Z,101204.34
2023-01-10T05:10:53.804Z,101200.09
2023-01-10T05:11:56.311Z,101215.06
2023-01-10T05:13:00.263Z,101209.13
2023-01-10T05:14:04.447Z,101210.91
2023-01-10T05:15:06.929Z,101212.81
2023-01-10T05:16:09.621Z,101213.72
2023-01-10T05:17:11.220Z,101212.97
2023-01-10T05:18:13.856Z,101209.50
2023-01-10T05:19:16.603Z,101216.53
2023-01-10T05:20:18.377Z,101208.81
2023-01-10T05:21:20.881Z,101206.28
2023-01-10T05:22:22.433Z,101206.34
2023-01-10T05:23:26.287Z,101209.91
2023-01-10T05:24:28.784Z,101214.44
2023-01-10T05:25:30.368Z,101212.75
2023-01-10T05:26:32.843Z,101212.84
2023-01-10T05:27:34.367Z,101216.41
2023-01-10T05:28:36.897Z,101220.94
2023-01-10T05:29:39.453Z,101221.00
2023-01-10T05:30:51.401Z,101220.25
2023-01-10T05:31:54.910Z,101217.69
2023-01-10T05:32:56.514Z,101216.94
2023-01-10T05:33:59.001Z,101218.72
2023-01-10T05:35:00.526Z,101227.66
2023-01-10T05:36:03.222Z,101227.75
2023-01-10T05:37:04.791Z,101224.34
2023-01-10T05:38:07.313Z,101222.66
2023-01-10T05:39:10.246Z,101233.19
2023-01-10T05:40:13.838Z,101240.34
2023-01-10T05:41:15.370Z,101237.78
2023-01-10T05:42:17.941Z,101247.47
2023-01-10T05:43:19.453Z,101245.78
2023-01-10T05:44:22.281Z,101242.38
2023-01-10T05:45:23.830Z,101243.34
2023-01-10T05:46:26.381Z,101242.56
2023-01-10T05:47:27.956Z,101242.56
2023-01-10T05:48:30.519Z,101246.16
2023-01-10T05:49:34.109Z,101249.72
2023-01-10T05:50:36.702Z,101242.72
2023-01-10T05:51:39.104Z,101243.56
2023-01-10T05:52:41.587Z,101234.91
2023-01-10T05:53:43.322Z,101236.78
2023-01-10T05:54:47.240Z,101229.81
2023-01-10T05:55:53.471Z,101227.25
2023-01-10T05:56:55.985Z,101231.66
2023-01-10T05:57:57.514Z,101234.41
2023-01-10T05:59:07.738Z,101238.81
2023-01-10T06:00:13.641Z,101242.38
2023-01-10T06:01:16.924Z,101242.38
2023-01-10T06:02:19.502Z,101247.75
2023-01-10T06:03:21.607Z,101247.84
2023-01-10T06:04:24.120Z,101248.69
2023-01-10T06:05:25.678Z,101258.38
2023-01-10T06:06:28.186Z,101254.03
2023-01-10T06:07:30.187Z,101260.25
2023-01-10T06:08:36.911Z,101268.16
2023-01-10T06:09:38.756Z,101270.78
2023-01-10T06:10:43.785Z,101267.31
2023-01-10T06:11:45.693Z,101279.56
2023-01-10T06:12:49.637Z,101279.44
2023-01-10T06:13:55.652Z,101284.56
2023-01-10T06:14:58.254Z,101282.59
2023-01-10T06:16:00.403Z,101283.28
2023-01-10T06:17:02.933Z,101280.47
2023-01-10T06:18:04.754Z,101289.06
2023-01-10T06:19:07.403Z,101291.53
2023-01-10T06:20:10.332Z,101299.28
2023-01-10T06:21:12.824Z,101286.88
2023-01-10T06:22:14.382Z,101284.06
2023-01-10T06:23:17.441Z,101278.69
2023-01-10T06:24:18.977Z,101280.41
2023-01-10T06:25:22.052Z,101270.72
2023-01-10T06:26:24.905Z,101281.31
2023-01-10T06:27:27.407Z,101285.75
2023-01-10T06:28:28.991Z,101291.03
2023-01-10T06:29:31.650Z,101297.16
2023-01-10T06:30:35.157Z,101291.03
2023-01-10T06:31:37.665Z,101307.63
2023-01-10T06:32:40.429Z,101308.38
2023-01-10T06:33:43.947Z,101297.84
2023-01-10T06:34:45.532Z,101306.50
2023-01-10T06:35:48.191Z,101302.94
2023-01-10T06:36:49.881Z,101306.41
2023-01-10T06:37:52.440Z,101305.50
2023-01-10T06:38:54.016Z,101310.59
2023-01-10T06:39:56.513Z,101310.50
2023-01-10T06:40:58.982Z,101312.28
2023-01-10T06:42:02.311Z,101306.94
2023-01-10T06:43:04.817Z,101313.91
2023-01-10T06:44:06.583Z,101311.34
2023-01-10T06:45:10.015Z,101313.81
2023-01-10T06:46:16.328Z,101313.81
2023-01-10T06:47:18.750Z,101318.16
2023-01-10T06:48:21.857Z,101324.28
2023-01-10T06:49:23.478Z,101326.94
2023-01-10T06:50:26.228Z,101330.50
2023-01-10T06:51:27.830Z,101336.63
2023-01-10T06:52:30.472Z,101327.84
2023-01-10T06:53:32.526Z,101332.19
2023-01-10T06:54:35.005Z,101333.88
2023-01-10T06:55:36.585Z,101339.16
2023-01-10T06:56:39.083Z,101333.88
2023-01-10T06:57:41.937Z,101335.59
2023-01-10T06:58:44.524Z,101340.88
2023-01-10T06:59:46.088Z,101337.31
2023-01-10T07:00:48.607Z,101345.13
2023-01-10T07:01:51.544Z,101347.69
2023-01-10T07:02:54.216Z,101354.66
2023-01-10T07:03:56.775Z,101349.41
2023-01-10T07:04:58.484Z,101351.19
2023-01-10T07:06:03.226Z,101350.31
2023-01-10T07:07:05.808Z,101353.88
2023-01-10T07:08:07.456Z,101356.53
2023-01-10T07:09:10.013Z,101361.78
2023-01-10T07:10:12.287Z,101365.41
2023-01-10T07:11:16.365Z,101367.25
2023-01-10T07:12:17.920Z,101369.88
2023-01-10T07:13:22.174Z,101367.25
2023-01-10T07:14:24.497Z,101362.91
2023-01-10T07:15:30.095Z,101363.84
2023-01-10T07:16:33.795Z,101368.28
2023-01-10T07:17:35.392Z,101370.97
2023-01-10T07:18:39.533Z,101385.97
2023-01-10T07:19:42.011Z,101379.84
2023-01-10T07:20:44.623Z,101388.69
2023-01-10T07:21:47.492Z,101393.91
2023-01-10T07:22:54.179Z,101380.72
2023-01-10T07:23:56.734Z,101390.28
2023-01-10T07:24:58.265Z,101382.38
2023-01-10T07:26:04.176Z,101392.88
2023-01-10T07:27:06.760Z,101392.00
2023-01-10T07:28:08.324Z,101391.16
2023-01-10T07:29:12.198Z,101391.16
2023-01-10T07:30:14.180Z,101391.16
2023-01-10T07:31:16.779Z,101394.72
2023-01-10T07:32:19.261Z,101391.31
2023-01-10T07:33:20.807Z,101396.59
2023-01-10T07:34:23.292Z,101387.81
2023-01-10T07:35:25.763Z,101404.50
2023-01-10T07:36:28.314Z,101398.38
2023-01-10T07:37:29.813Z,101398.38
2023-01-10T07:38:32.293Z,101393.09
2023-01-10T07:39:35.170Z,101400.16
2023-01-10T07:40:36.754Z,101395.84
2023-01-10T07:41:39.280Z,101396.78
2023-01-10T07:42:40.905Z,101392.53
2023-01-10T07:43:43.467Z,101398.72
2023-01-10T07:44:49.491Z,101398.03
2023-01-10T07:45:52.213Z,101402.63
2023-01-10T07:46:54.724Z,101410.63
2023-01-10T07:47:57.272Z,101406.34
2023-01-10T07:48:59.768Z,101415.28
2023-01-10T07:50:01.498Z,101410.09
2023-01-10T07:51:05.633Z,101411.09
2023-01-10T07:52:09.102Z,101412.03
2023-01-10T07:53:10.983Z,101413.91
2023-01-10T07:54:14.840Z,101414.84
2023-01-10T07:55:17.702Z,101418.56
2023-01-10T07:56:22.075Z,101413.31
2023-01-10T07:57:24.923Z,101420.41
2023-01-10T07:58:27.708Z,101420.41
2023-01-10T07:59:30.218Z,101427.56
2023-01-10T08:00:35.559Z,101431.13
2023-01-10T08:01:37.132Z,101432.06
2023-01-10T08:02:39.870Z,101430.38
2023-01-10T08:03:41.562Z,101424.34
2023-01-10T08:04:44.473Z,101423.47
2023-01-10T08:05:46.954Z,101434.88
2023-01-10T08:06:49.438Z,101433.16
2023-01-10T08:07:51.071Z,101437.56
2023-01-10T08:08:53.583Z,101438.44
2023-01-10T08:09:55.156Z,101431.44
2023-01-10T08:10:59.475Z,101449.91
2023-01-10T08:12:01.028Z,101452.53
2023-01-10T08:13:17.490Z,101445.59
2023-01-10T08:14:21.129Z,101448.22
2023-01-10T08:15:22.903Z,101445.59
2023-01-10T08:16:27.404Z,101449.03
2023-01-10T08:17:29.920Z,101450.84
2023-01-10T08:18:42.311Z,101460.44
2023-01-10T08:19:49.370Z,101457.81
2023-01-10T08:20:54.257Z,101457.81
2023-01-10T08:21:56.780Z,101468.34
2023-01-10T08:22:58.962Z,101464.84
2023-01-10T08:24:01.505Z,101466.56
2023-01-10T08:25:03.421Z,101468.34
2023-01-10T08:26:07.172Z,101464.94
2023-01-10T08:27:08.743Z,101460.53
2023-01-10T08:28:11.740Z,101458.75
2023-01-10T08:29:14.321Z,101461.41
2023-01-10T08:30:16.658Z,101452.53
2023-01-10T08:31:21.590Z,101464.78
2023-01-10T08:32:24.503Z,101457.81
2023-01-10T08:33:27.387Z,101463.06
2023-01-10T08:34:28.965Z,101453.50
2023-01-10T08:35:31.977Z,101465.72
2023-01-10T08:36:33.614Z,101457.81
2023-01-10T08:37:36.126Z,101458.66
2023-01-10T08:38:37.656Z,101454.25
2023-01-10T08:39:40.202Z,101460.38
2023-01-10T08:40:42.877Z,101466.41
2023-01-10T08:41:45.467Z,101463.78
2023-01-10T08:42:47.034Z,101469.91
2023-01-10T08:43:50.339Z,101459.41
2023-01-10T08:44:54.305Z,101466.41
2023-01-10T08:45:58.180Z,101473.41
2023-01-10T08:47:00.812Z,101469.03
2023-01-10T08:48:04.620Z,101474.31
2023-01-10T08:49:07.322Z,101465.50
2023-01-10T08:50:11.147Z,101465.50
2023-01-10T08:51:13.662Z,101470.75
2023-01-10T08:52:19.244Z,101473.41
2023-01-10T08:53:21.732Z,101475.16
2023-01-10T08:54:23.336Z,101481.31
2023-01-10T08:55:26.882Z,101483.00
2023-01-10T08:56:31.320Z,101485.56
2023-01-10T08:57:35.081Z,101477.75
2023-01-10T08:58:38.398Z,101479.44
2023-01-10T08:59:41.263Z,101482.00
2023-01-10T09:00:44.977Z,101478.41
2023-01-10T09:01:47.646Z,101482.75
2023-01-10T09:02:50.329Z,101479.19
2023-01-10T09:03:54.176Z,101485.38
2023-01-10T09:04:56.764Z,101479.09
2023-01-10T09:05:59.985Z,101474.69
2023-01-10T09:07:02.528Z,101472.91
2023-01-10T09:08:04.541Z,101478.13
2023-01-10T09:09:07.083Z,101483.38
2023-01-10T09:10:11.188Z,101486.78
2023-01-10T09:11:14.544Z,101485.00
2023-01-10T09:12:37.723Z,101473.44
2023-01-10T09:13:42.128Z,101477.78
2023-01-10T09:14:43.677Z,101486.47
2023-01-10T09:15:46.460Z,101478.47
2023-01-10T09:16:51.532Z,101479.25
2023-01-10T09:17:55.733Z,101486.13
2023-01-10T09:18:59.749Z,101479.88
2023-01-10T09:20:06.033Z,101478.84
2023-01-10T09:21:09.107Z,101485.81
2023-01-10T09:22:10.741Z,101481.22
2023-01-10T09:23:17.630Z,101485.50
2023-01-10T09:24:20.433Z,101491.53
2023-01-10T09:25:22.997Z,101487.88
2023-01-10T09:26:25.530Z,101480.75
2023-01-10T09:27:27.105Z,101480.59
2023-01-10T09:28:29.663Z,101478.72
2023-01-10T09:29:32.155Z,101471.50
2023-01-10T09:30:35.363Z,101481.00
2023-01-10T09:31:37.922Z,101476.44
2023-01-10T09:32:40.562Z,101475.41
2023-01-10T09:33:47.130Z,101478.72
2023-01-10T09:34:51.403Z,101469.88
2023-01-10T09:35:58.024Z,101468.97
2023-01-10T09:37:00.531Z,101480.28
2023-01-10T09:38:03.479Z,101473.13
2023-01-10T09:39:05.987Z,101477.41
2023-01-10T09:40:09.721Z,101478.09
2023-01-10T09:41:25.724Z,101475.28
2023-01-10T09:42:45.950Z,101483.94
2023-01-10T09:44:01.102Z,101483.03
2023-01-10T09:45:15.010Z,101476.78
2023-01-10T09:46:26.904Z,101475.00
2023-01-10T09:47:39.173Z,101482.84
2023-01-10T09:48:53.186Z,101486.25
2023-01-10T09:50:07.463Z,101483.59
2023-01-10T09:51:23.238Z,101481.81
2023-01-10T09:52:31.308Z,101484.38
2023-01-10T09:53:37.010Z,101488.81
2023-01-10T09:54:43.039Z,101494.94
2023-01-10T09:55:50.974Z,101483.53
2023-01-10T09:56:55.681Z,101480.78
2023-01-10T09:58:01.116Z,101485.03
2023-01-10T09:59:04.064Z,101491.19
2023-01-10T10:00:09.372Z,101487.53
2023-01-10T10:01:18.262Z,101476.88
2023-01-10T10:02:28.060Z,101476.69
2023-01-10T10:03:40.165Z,101481.91
2023-01-10T10:04:47.348Z,101493.34
2023-01-10T10:05:54.099Z,101490.53
2023-01-10T10:06:58.652Z,101485.25
2023-01-10T10:08:02.339Z,101489.50
2023-01-10T10:09:05.176Z,101490.16
2023-01-10T10:10:12.070Z,101487.47
2023-01-10T10:11:43.385Z,101481.19
2023-01-10T10:12:55.228Z,101479.47
2023-01-10T10:14:05.498Z,101484.63
2023-01-10T10:15:22.029Z,101484.56
2023-01-10T10:16:38.132Z,101479.13
2023-01-10T10:17:48.924Z,101479.88
2023-01-10T10:19:02.765Z,101481.41
2023-01-10T10:20:26.608Z,101478.75
2023-01-10T10:21:40.351Z,101475.94
2023-01-10T10:22:53.544Z,101467.09
2023-01-10T10:24:17.741Z,101472.19
2023-01-10T10:25:36.451Z,101466.66
2023-01-10T10:26:48.392Z,101485.84
2023-01-10T10:28:10.345Z,101481.28
2023-01-10T10:29:36.159Z,101471.41
2023-01-10T10:30:48.061Z,101473.75
2023-01-10T10:32:05.233Z,101474.63
2023-01-10T10:33:34.408Z,101477.94
2023-01-10T10:34:41.092Z,101471.72
2023-01-10T10:35:50.795Z,101470.69
2023-01-10T10:37:00.409Z,101471.34
2023-01-10T10:38:08.235Z,101471.19
2023-01-10T10:39:16.144Z,101468.34
2023-01-10T10:40:20.940Z,101477.81
2023-01-10T10:41:32.840Z,101474.06
2023-01-10T10:42:40.072Z,101471.28
2023-01-10T10:43:43.983Z,101476.50
2023-01-10T10:44:52.564Z,101471.22
2023-01-10T10:46:01.090Z,101471.97
2023-01-10T10:47:14.970Z,101458.75
2023-01-10T10:48:25.030Z,101473.56
2023-01-10T10:49:38.704Z,101461.22
2023-01-10T10:50:51.292Z,101464.63
2023-01-10T10:51:55.211Z,101458.31
2023-01-10T10:52:57.228Z,101459.91
2023-01-10T10:54:01.234Z,101450.19
2023-01-10T10:55:04.984Z,101450.00
2023-01-10T10:56:12.561Z,101450.75
2023-01-10T10:57:14.221Z,101452.38
2023-01-10T10:58:17.344Z,101443.41
2023-01-10T10:59:20.918Z,101443.22
2023-01-10T11:00:24.015Z,101447.47
2023-01-10T11:01:27.490Z,101443.88
2023-01-10T11:02:31.393Z,101441.97
2023-01-10T11:03:41.951Z,101441.06
2023-01-10T11:04:44.561Z,101438.41
2023-01-10T11:05:47.699Z,101430.34
2023-01-10T11:06:51.231Z,101438.22
2023-01-10T11:08:01.581Z,101432.91
2023-01-10T11:09:06.680Z,101426.69
2023-01-10T11:10:32.508Z,101425.72
2023-01-10T11:11:38.957Z,101423.75
2023-01-10T11:12:47.758Z,101416.66
2023-01-10T11:13:55.729Z,101414.81
2023-01-10T11:14:58.848Z,101420.09
2023-01-10T11:16:02.391Z,101411.19
2023-01-10T11:17:20.594Z,101407.69
2023-01-10T11:18:25.356Z,101405.81
2023-01-10T11:19:30.094Z,101415.44
2023-01-10T11:20:31.786Z,101407.41
2023-01-10T11:21:34.363Z,101409.19
2023-01-10T11:22:40.820Z,101419.72
2023-01-10T11:23:53.074Z,101412.69
2023-01-10T11:24:58.155Z,101413.56
2023-01-10T11:26:01.338Z,101407.22
2023-01-10T11:27:15.982Z,101408.94
2023-01-10T11:28:27.608Z,101406.09
2023-01-10T11:29:39.449Z,101401.66
2023-01-10T11:30:52.786Z,101405.91
2023-01-10T11:31:58.017Z,101403.25
2023-01-10T11:33:02.852Z,101401.47
2023-01-10T11:34:06.812Z,101404.00
2023-01-10T11:35:18.260Z,101410.06
2023-01-10T11:36:21.104Z,101414.31
2023-01-10T11:37:28.992Z,101409.00
2023-01-10T11:38:32.989Z,101407.97
2023-01-10T11:39:36.821Z,101405.31
2023-01-10T11:40:39.442Z,101406.06
2023-01-10T11:41:41.985Z,101400.59
2023-01-10T11:42:43.985Z,101398.69
2023-01-10T11:43:46.484Z,101409.06
2023-01-10T11:44:48.013Z,101401.88
2023-01-10T11:45:55.815Z,101406.16
2023-01-10T11:47:01.766Z,101410.38
2023-01-10T11:48:09.879Z,101405.09
2023-01-10T11:49:19.534Z,101410.19
2023-01-10T11:50:24.990Z,101403.84
2023-01-10T11:51:30.207Z,101401.13
2023-01-10T11:52:31.791Z,101400.91
2023-01-10T11:53:41.515Z,101399.00
2023-01-10T11:54:45.830Z,101399.78
2023-01-10T11:55:48.811Z,101390.88
2023-01-10T11:56:58.801Z,101395.22
2023-01-10T11:58:06.261Z,101386.22
2023-01-10T11:59:12.413Z,101385.16
2023-01-10T12:00:17.825Z,101382.44
2023-01-10T12:01:34.240Z,101392.91
2023-01-10T12:02:41.270Z,101384.88
2023-01-10T12:03:42.863Z,101383.81
2023-01-10T12:04:47.580Z,101383.81
2023-01-10T12:05:51.797Z,101378.44
2023-01-10T12:06:57.081Z,101381.94
2023-01-10T12:08:06.027Z,101379.28
2023-01-10T12:09:34.700Z,101376.66
2023-01-10T12:10:38.611Z,101374.72
2023-01-10T12:11:40.172Z,101373.72
2023-01-10T12:12:55.153Z,101371.81
2023-01-10T12:13:59.889Z,101367.34
2023-01-10T12:15:23.902Z,101369.06
2023-01-10T12:16:28.855Z,101370.78
2023-01-10T12:17:34.936Z,101369.06
2023-01-10T12:18:37.516Z,101370.78
2023-01-10T12:19:40.130Z,101372.47
2023-01-10T12:20:48.032Z,101361.75
2023-01-10T12:21:51.698Z,101366.22
2023-01-10T12:22:58.631Z,101357.31
2023-01-10T12:24:04.604Z,101347.66
2023-01-10T12:25:18.978Z,101348.63
2023-01-10T12:26:22.221Z,101346.81
2023-01-10T12:27:27.304Z,101352.97
2023-01-10T12:28:30.499Z,101357.31